sensor_id;sensor_type;location;lat;lon;timestamp;temperature;humidity
1812;DHT22;904;47.814;11.134;2024-02-28T00:00:58;7.30;70.80
1812;DHT22;904;47.814;11.134;2024-02-28T00:03:27;7.30;71.20
1812;DHT22;904;47.814;11.134;2024-02-28T00:05:56;7.30;70.80
1812;DHT22;904;47.814;11.134;2024-02-28T00:08:24;7.30;70.90
1812;DHT22;904;47.814;11.134;2024-02-28T00:10:52;7.30;70.90
1812;DHT22;904;47.814;11.134;2024-02-28T00:13:20;7.30;71.40
1812;DHT22;904;47.814;11.134;2024-02-28T00:15:48;7.40;71.30
1812;DHT22;904;47.814;11.134;2024-02-28T00:18:16;7.40;71.40
1812;DHT22;904;47.814;11.134;2024-02-28T00:20:45;7.40;71.30
1812;DHT22;904;47.814;11.134;2024-02-28T00:23:14;7.40;71.00
1812;DHT22;904;47.814;11.134;2024-02-28T00:25:43;7.50;71.30
1812;DHT22;904;47.814;11.134;2024-02-28T00:28:10;7.50;70.80
1812;DHT22;904;47.814;11.134;2024-02-28T00:30:43;7.50;71.00
1812;DHT22;904;47.814;11.134;2024-02-28T00:33:10;7.50;70.90
1812;DHT22;904;47.814;11.134;2024-02-28T00:35:40;7.60;70.80
1812;DHT22;904;47.814;11.134;2024-02-28T00:38:08;7.50;70.10
1812;DHT22;904;47.814;11.134;2024-02-28T00:40:37;7.50;70.10
1812;DHT22;904;47.814;11.134;2024-02-28T00:43:04;7.50;70.60
1812;DHT22;904;47.814;11.134;2024-02-28T00:45:31;7.50;70.50
1812;DHT22;904;47.814;11.134;2024-02-28T00:48:01;7.50;70.40
1812;DHT22;904;47.814;11.134;2024-02-28T00:50:30;7.60;70.50
1812;DHT22;904;47.814;11.134;2024-02-28T00:52:57;7.60;70.40
1812;DHT22;904;47.814;11.134;2024-02-28T00:55:24;7.60;70.60
1812;DHT22;904;47.814;11.134;2024-02-28T00:57:53;7.60;71.00
1812;DHT22;904;47.814;11.134;2024-02-28T01:00:20;7.70;70.80
1812;DHT22;904;47.814;11.134;2024-02-28T01:02:47;7.70;70.90
1812;DHT22;904;47.814;11.134;2024-02-28T01:05:16;7.70;70.80
1812;DHT22;904;47.814;11.134;2024-02-28T01:07:46;7.60;71.00
1812;DHT22;904;47.814;11.134;2024-02-28T01:10:13;7.50;71.40
1812;DHT22;904;47.814;11.134;2024-02-28T01:12:40;7.60;71.60
1812;DHT22;904;47.814;11.134;2024-02-28T01:15:09;7.60;71.80
1812;DHT22;904;47.814;11.134;2024-02-28T01:17:36;7.70;71.30
1812;DHT22;904;47.814;11.134;2024-02-28T01:20:04;7.70;71.60
1812;DHT22;904;47.814;11.134;2024-02-28T01:22:33;7.70;71.70
1812;DHT22;904;47.814;11.134;2024-02-28T01:25:00;7.70;72.00
1812;DHT22;904;47.814;11.134;2024-02-28T01:27:35;7.70;72.10
1812;DHT22;904;47.814;11.134;2024-02-28T01:30:03;7.80;72.20
1812;DHT22;904;47.814;11.134;2024-02-28T01:32:32;7.70;72.20
1812;DHT22;904;47.814;11.134;2024-02-28T01:34:59;7.70;72.40
1812;DHT22;904;47.814;11.134;2024-02-28T01:37:31;7.70;72.70
1812;DHT22;904;47.814;11.134;2024-02-28T01:39:58;7.70;73.40
1812;DHT22;904;47.814;11.134;2024-02-28T01:42:31;7.70;72.60
1812;DHT22;904;47.814;11.134;2024-02-28T01:45:03;7.70;72.40
1812;DHT22;904;47.814;11.134;2024-02-28T01:47:32;7.70;72.40
1812;DHT22;904;47.814;11.134;2024-02-28T01:50:03;7.70;72.50
1812;DHT22;904;47.814;11.134;2024-02-28T01:52:32;7.80;72.60
1812;DHT22;904;47.814;11.134;2024-02-28T01:55:04;7.80;72.40
1812;DHT22;904;47.814;11.134;2024-02-28T01:57:32;7.80;72.30
1812;DHT22;904;47.814;11.134;2024-02-28T02:00:01;7.80;72.20
1812;DHT22;904;47.814;11.134;2024-02-28T02:02:28;7.80;72.50
1812;DHT22;904;47.814;11.134;2024-02-28T02:04:56;7.80;72.60
1812;DHT22;904;47.814;11.134;2024-02-28T02:07:24;7.80;73.10
1812;DHT22;904;47.814;11.134;2024-02-28T02:09:52;7.80;73.00
1812;DHT22;904;47.814;11.134;2024-02-28T02:12:21;7.80;73.20
1812;DHT22;904;47.814;11.134;2024-02-28T02:14:48;7.80;73.30
1812;DHT22;904;47.814;11.134;2024-02-28T02:17:15;7.80;73.40
1812;DHT22;904;47.814;11.134;2024-02-28T02:19:48;7.90;73.20
1812;DHT22;904;47.814;11.134;2024-02-28T02:22:17;7.90;73.10
1812;DHT22;904;47.814;11.134;2024-02-28T02:24:47;7.90;73.00
1812;DHT22;904;47.814;11.134;2024-02-28T02:27:20;7.90;72.90
1812;DHT22;904;47.814;11.134;2024-02-28T02:29:47;7.90;72.70
1812;DHT22;904;47.814;11.134;2024-02-28T02:32:16;7.90;72.40
1812;DHT22;904;47.814;11.134;2024-02-28T02:34:43;7.90;72.50
1812;DHT22;904;47.814;11.134;2024-02-28T02:37:10;7.90;72.80
1812;DHT22;904;47.814;11.134;2024-02-28T02:39:37;7.80;72.90
1812;DHT22;904;47.814;11.134;2024-02-28T02:42:06;7.90;73.10
1812;DHT22;904;47.814;11.134;2024-02-28T02:44:33;7.90;73.10
1812;DHT22;904;47.814;11.134;2024-02-28T02:47:01;7.90;73.00
1812;DHT22;904;47.814;11.134;2024-02-28T02:49:28;7.80;73.00
1812;DHT22;904;47.814;11.134;2024-02-28T02:52:00;7.90;73.20
1812;DHT22;904;47.814;11.134;2024-02-28T02:54:27;7.90;73.10
1812;DHT22;904;47.814;11.134;2024-02-28T02:56:54;7.90;73.40
1812;DHT22;904;47.814;11.134;2024-02-28T02:59:22;7.90;73.50
1812;DHT22;904;47.814;11.134;2024-02-28T03:01:54;7.90;73.50
1812;DHT22;904;47.814;11.134;2024-02-28T03:04:21;8.00;73.30
1812;DHT22;904;47.814;11.134;2024-02-28T03:06:52;7.90;73.10
1812;DHT22;904;47.814;11.134;2024-02-28T03:09:19;7.90;73.00
1812;DHT22;904;47.814;11.134;2024-02-28T03:11:47;7.90;73.10
1812;DHT22;904;47.814;11.134;2024-02-28T03:14:14;7.90;73.20
1812;DHT22;904;47.814;11.134;2024-02-28T03:16:48;7.90;73.30
1812;DHT22;904;47.814;11.134;2024-02-28T03:19:15;8.00;73.30
1812;DHT22;904;47.814;11.134;2024-02-28T03:21:43;8.00;73.30
1812;DHT22;904;47.814;11.134;2024-02-28T03:24:10;8.00;73.70
1812;DHT22;904;47.814;11.134;2024-02-28T03:26:37;8.10;73.50
1812;DHT22;904;47.814;11.134;2024-02-28T03:29:04;8.10;73.60
1812;DHT22;904;47.814;11.134;2024-02-28T03:31:31;8.10;73.50
1812;DHT22;904;47.814;11.134;2024-02-28T03:34:00;8.10;73.90
1812;DHT22;904;47.814;11.134;2024-02-28T03:36:35;8.10;74.10
1812;DHT22;904;47.814;11.134;2024-02-28T03:39:02;8.10;73.90
1812;DHT22;904;47.814;11.134;2024-02-28T03:41:31;8.10;73.30
1812;DHT22;904;47.814;11.134;2024-02-28T03:43:59;8.10;73.50
1812;DHT22;904;47.814;11.134;2024-02-28T03:46:30;8.10;73.60
1812;DHT22;904;47.814;11.134;2024-02-28T03:48:57;8.10;74.00
1812;DHT22;904;47.814;11.134;2024-02-28T03:51:26;8.10;73.90
1812;DHT22;904;47.814;11.134;2024-02-28T03:53:53;8.10;74.10
1812;DHT22;904;47.814;11.134;2024-02-28T03:56:23;8.10;73.70
1812;DHT22;904;47.814;11.134;2024-02-28T03:58:51;8.10;73.70
1812;DHT22;904;47.814;11.134;2024-02-28T04:01:18;8.10;73.90
1812;DHT22;904;47.814;11.134;2024-02-28T04:03:46;8.10;73.90
1812;DHT22;904;47.814;11.134;2024-02-28T04:06:13;8.00;74.00
1812;DHT22;904;47.814;11.134;2024-02-28T04:08:42;8.00;73.90
1812;DHT22;904;47.814;11.134;2024-02-28T04:11:09;8.00;74.20
1812;DHT22;904;47.814;11.134;2024-02-28T04:13:36;8.10;74.40
1812;DHT22;904;47.814;11.134;2024-02-28T04:16:04;8.10;74.30
1812;DHT22;904;47.814;11.134;2024-02-28T04:18:33;8.10;74.30
1812;DHT22;904;47.814;11.134;2024-02-28T04:21:00;8.10;74.50
1812;DHT22;904;47.814;11.134;2024-02-28T04:23:31;8.10;74.50
1812;DHT22;904;47.814;11.134;2024-02-28T04:26:00;8.10;74.40
1812;DHT22;904;47.814;11.134;2024-02-28T04:28:27;8.10;74.40
1812;DHT22;904;47.814;11.134;2024-02-28T04:30:58;8.10;74.50
1812;DHT22;904;47.814;11.134;2024-02-28T04:33:25;8.10;74.50
1812;DHT22;904;47.814;11.134;2024-02-28T04:35:53;8.00;74.50
1812;DHT22;904;47.814;11.134;2024-02-28T04:38:25;8.00;74.70
1812;DHT22;904;47.814;11.134;2024-02-28T04:40:53;8.10;74.90
1812;DHT22;904;47.814;11.134;2024-02-28T04:43:21;8.10;75.00
1812;DHT22;904;47.814;11.134;2024-02-28T04:45:48;8.10;75.20
1812;DHT22;904;47.814;11.134;2024-02-28T04:48:15;8.10;75.00
1812;DHT22;904;47.814;11.134;2024-02-28T04:50:43;8.00;75.00
1812;DHT22;904;47.814;11.134;2024-02-28T04:53:11;8.00;75.20
1812;DHT22;904;47.814;11.134;2024-02-28T04:55:39;8.00;75.00
1812;DHT22;904;47.814;11.134;2024-02-28T04:58:05;8.00;75.10
1812;DHT22;904;47.814;11.134;2024-02-28T05:00:34;8.00;74.90
1812;DHT22;904;47.814;11.134;2024-02-28T05:03:01;8.00;74.70
1812;DHT22;904;47.814;11.134;2024-02-28T05:05:28;8.00;74.90
1812;DHT22;904;47.814;11.134;2024-02-28T05:07:55;8.00;75.10
1812;DHT22;904;47.814;11.134;2024-02-28T05:10:23;8.00;75.20
1812;DHT22;904;47.814;11.134;2024-02-28T05:12:50;8.00;75.40
1812;DHT22;904;47.814;11.134;2024-02-28T05:15:17;8.00;75.50
1812;DHT22;904;47.814;11.134;2024-02-28T05:17:50;8.00;75.20
1812;DHT22;904;47.814;11.134;2024-02-28T05:20:17;8.00;75.10
1812;DHT22;904;47.814;11.134;2024-02-28T05:22:44;8.00;75.50
1812;DHT22;904;47.814;11.134;2024-02-28T05:25:11;8.00;75.60
1812;DHT22;904;47.814;11.134;2024-02-28T05:27:38;8.00;75.50
1812;DHT22;904;47.814;11.134;2024-02-28T05:30:11;8.00;75.60
1812;DHT22;904;47.814;11.134;2024-02-28T05:32:38;8.10;75.70
1812;DHT22;904;47.814;11.134;2024-02-28T05:35:08;8.00;75.60
1812;DHT22;904;47.814;11.134;2024-02-28T05:37:41;8.10;75.80
1812;DHT22;904;47.814;11.134;2024-02-28T05:40:09;8.10;75.60
1812;DHT22;904;47.814;11.134;2024-02-28T05:42:38;8.10;75.40
1812;DHT22;904;47.814;11.134;2024-02-28T05:45:06;8.10;75.70
1812;DHT22;904;47.814;11.134;2024-02-28T05:47:36;8.00;75.90
1812;DHT22;904;47.814;11.134;2024-02-28T05:50:10;8.00;75.90
1812;DHT22;904;47.814;11.134;2024-02-28T05:52:41;8.00;76.00
1812;DHT22;904;47.814;11.134;2024-02-28T05:55:12;8.00;76.00
1812;DHT22;904;47.814;11.134;2024-02-28T05:57:39;8.00;76.30
1812;DHT22;904;47.814;11.134;2024-02-28T06:00:11;8.00;76.10
1812;DHT22;904;47.814;11.134;2024-02-28T06:02:41;8.10;76.10
1812;DHT22;904;47.814;11.134;2024-02-28T06:05:10;8.10;75.90
1812;DHT22;904;47.814;11.134;2024-02-28T06:07:38;8.10;76.10
1812;DHT22;904;47.814;11.134;2024-02-28T06:10:13;8.10;76.20
1812;DHT22;904;47.814;11.134;2024-02-28T06:12:45;8.10;76.50
1812;DHT22;904;47.814;11.134;2024-02-28T06:15:15;8.10;76.50
1812;DHT22;904;47.814;11.134;2024-02-28T06:17:42;8.10;76.50
1812;DHT22;904;47.814;11.134;2024-02-28T06:20:11;8.10;76.50
1812;DHT22;904;47.814;11.134;2024-02-28T06:22:40;8.20;76.40
1812;DHT22;904;47.814;11.134;2024-02-28T06:25:07;8.20;76.40
1812;DHT22;904;47.814;11.134;2024-02-28T06:27:43;8.20;76.40
1812;DHT22;904;47.814;11.134;2024-02-28T06:30:11;8.10;76.30
1812;DHT22;904;47.814;11.134;2024-02-28T06:32:39;8.20;76.70
1812;DHT22;904;47.814;11.134;2024-02-28T06:35:07;8.20;76.90
1812;DHT22;904;47.814;11.134;2024-02-28T06:37:36;8.20;77.00
1812;DHT22;904;47.814;11.134;2024-02-28T06:40:04;8.20;77.20
1812;DHT22;904;47.814;11.134;2024-02-28T06:42:31;8.20;77.70
1812;DHT22;904;47.814;11.134;2024-02-28T06:44:58;8.20;78.00
1812;DHT22;904;47.814;11.134;2024-02-28T06:47:25;8.20;77.90
1812;DHT22;904;47.814;11.134;2024-02-28T06:49:53;8.20;78.30
1812;DHT22;904;47.814;11.134;2024-02-28T06:52:20;8.20;78.50
1812;DHT22;904;47.814;11.134;2024-02-28T06:54:48;8.20;78.10
1812;DHT22;904;47.814;11.134;2024-02-28T06:57:15;8.20;78.60
1812;DHT22;904;47.814;11.134;2024-02-28T06:59:42;8.20;79.00
1812;DHT22;904;47.814;11.134;2024-02-28T07:02:09;8.30;80.30
1812;DHT22;904;47.814;11.134;2024-02-28T07:04:36;8.30;79.40
1812;DHT22;904;47.814;11.134;2024-02-28T07:07:04;8.30;79.40
1812;DHT22;904;47.814;11.134;2024-02-28T07:09:31;8.30;79.80
1812;DHT22;904;47.814;11.134;2024-02-28T07:12:00;8.30;80.00
1812;DHT22;904;47.814;11.134;2024-02-28T07:14:27;8.30;80.10
1812;DHT22;904;47.814;11.134;2024-02-28T07:16:54;8.30;80.20
1812;DHT22;904;47.814;11.134;2024-02-28T07:19:21;8.30;80.30
1812;DHT22;904;47.814;11.134;2024-02-28T07:21:48;8.30;80.10
1812;DHT22;904;47.814;11.134;2024-02-28T07:24:15;8.30;80.40
1812;DHT22;904;47.814;11.134;2024-02-28T07:26:42;8.30;80.40
1812;DHT22;904;47.814;11.134;2024-02-28T07:29:10;8.30;80.50
1812;DHT22;904;47.814;11.134;2024-02-28T07:31:37;8.20;80.40
1812;DHT22;904;47.814;11.134;2024-02-28T07:34:06;8.20;80.80
1812;DHT22;904;47.814;11.134;2024-02-28T07:36:33;8.20;81.20
1812;DHT22;904;47.814;11.134;2024-02-28T07:39:00;8.20;81.30
1812;DHT22;904;47.814;11.134;2024-02-28T07:41:28;8.20;81.30
1812;DHT22;904;47.814;11.134;2024-02-28T07:43:55;8.20;81.30
1812;DHT22;904;47.814;11.134;2024-02-28T07:46:23;8.30;82.00
1812;DHT22;904;47.814;11.134;2024-02-28T07:48:50;8.30;82.00
1812;DHT22;904;47.814;11.134;2024-02-28T07:51:18;8.30;81.90
1812;DHT22;904;47.814;11.134;2024-02-28T07:53:45;8.30;82.00
1812;DHT22;904;47.814;11.134;2024-02-28T07:56:15;8.20;82.20
1812;DHT22;904;47.814;11.134;2024-02-28T07:58:44;8.20;82.40
1812;DHT22;904;47.814;11.134;2024-02-28T08:01:11;8.20;82.70
1812;DHT22;904;47.814;11.134;2024-02-28T08:03:39;8.10;83.80
1812;DHT22;904;47.814;11.134;2024-02-28T08:06:07;8.10;84.50
1812;DHT22;904;47.814;11.134;2024-02-28T08:08:34;8.10;84.90
1812;DHT22;904;47.814;11.134;2024-02-28T08:11:01;8.10;85.20
1812;DHT22;904;47.814;11.134;2024-02-28T08:13:29;8.00;85.70
1812;DHT22;904;47.814;11.134;2024-02-28T08:15:56;8.10;85.40
1812;DHT22;904;47.814;11.134;2024-02-28T08:18:22;8.10;85.30
1812;DHT22;904;47.814;11.134;2024-02-28T08:20:51;8.10;85.90
1812;DHT22;904;47.814;11.134;2024-02-28T08:23:18;8.10;86.20
1812;DHT22;904;47.814;11.134;2024-02-28T08:25:45;8.20;86.10
1812;DHT22;904;47.814;11.134;2024-02-28T08:28:12;8.20;86.30
1812;DHT22;904;47.814;11.134;2024-02-28T08:30:39;8.20;86.30
1812;DHT22;904;47.814;11.134;2024-02-28T08:33:06;8.30;86.40
1812;DHT22;904;47.814;11.134;2024-02-28T08:35:34;8.30;85.90
1812;DHT22;904;47.814;11.134;2024-02-28T08:38:03;8.40;85.50
1812;DHT22;904;47.814;11.134;2024-02-28T08:40:30;8.40;85.80
1812;DHT22;904;47.814;11.134;2024-02-28T08:42:56;8.40;85.50
1812;DHT22;904;47.814;11.134;2024-02-28T08:45:23;8.50;85.70
1812;DHT22;904;47.814;11.134;2024-02-28T08:47:50;8.50;86.10
1812;DHT22;904;47.814;11.134;2024-02-28T08:50:18;8.50;86.40
1812;DHT22;904;47.814;11.134;2024-02-28T08:52:45;8.50;86.50
1812;DHT22;904;47.814;11.134;2024-02-28T08:55:14;8.60;86.60
1812;DHT22;904;47.814;11.134;2024-02-28T08:57:44;8.60;86.50
1812;DHT22;904;47.814;11.134;2024-02-28T09:00:12;8.60;86.20
1812;DHT22;904;47.814;11.134;2024-02-28T09:02:41;8.70;86.50
1812;DHT22;904;47.814;11.134;2024-02-28T09:05:08;8.70;86.10
1812;DHT22;904;47.814;11.134;2024-02-28T09:07:36;8.80;86.30
1812;DHT22;904;47.814;11.134;2024-02-28T09:10:04;8.80;85.80
1812;DHT22;904;47.814;11.134;2024-02-28T09:12:35;8.80;85.80
1812;DHT22;904;47.814;11.134;2024-02-28T09:15:02;8.80;85.60
1812;DHT22;904;47.814;11.134;2024-02-28T09:17:29;8.80;86.00
1812;DHT22;904;47.814;11.134;2024-02-28T09:19:56;8.80;85.70
1812;DHT22;904;47.814;11.134;2024-02-28T09:22:26;8.80;85.70
1812;DHT22;904;47.814;11.134;2024-02-28T09:24:53;8.80;86.10
1812;DHT22;904;47.814;11.134;2024-02-28T09:27:20;8.90;85.80
1812;DHT22;904;47.814;11.134;2024-02-28T09:29:48;8.90;85.10
1812;DHT22;904;47.814;11.134;2024-02-28T09:32:15;8.90;85.50
1812;DHT22;904;47.814;11.134;2024-02-28T09:34:44;8.90;85.50
1812;DHT22;904;47.814;11.134;2024-02-28T09:37:11;8.90;85.60
1812;DHT22;904;47.814;11.134;2024-02-28T09:39:38;8.90;85.60
1812;DHT22;904;47.814;11.134;2024-02-28T09:42:05;8.90;85.60
1812;DHT22;904;47.814;11.134;2024-02-28T09:44:34;8.90;85.60
1812;DHT22;904;47.814;11.134;2024-02-28T09:47:03;8.90;85.90
1812;DHT22;904;47.814;11.134;2024-02-28T09:49:31;9.00;85.80
1812;DHT22;904;47.814;11.134;2024-02-28T09:51:59;9.00;85.90
1812;DHT22;904;47.814;11.134;2024-02-28T09:54:26;9.00;85.70
1812;DHT22;904;47.814;11.134;2024-02-28T09:56:53;9.00;85.60
1812;DHT22;904;47.814;11.134;2024-02-28T09:59:23;9.00;85.60
1812;DHT22;904;47.814;11.134;2024-02-28T10:01:56;9.10;85.60
1812;DHT22;904;47.814;11.134;2024-02-28T10:04:26;9.10;85.50
1812;DHT22;904;47.814;11.134;2024-02-28T10:06:53;9.20;85.30
1812;DHT22;904;47.814;11.134;2024-02-28T10:09:20;9.20;84.90
1812;DHT22;904;47.814;11.134;2024-02-28T10:11:47;9.20;84.50
1812;DHT22;904;47.814;11.134;2024-02-28T10:14:17;9.20;84.20
1812;DHT22;904;47.814;11.134;2024-02-28T10:16:45;9.30;83.70
1812;DHT22;904;47.814;11.134;2024-02-28T10:19:12;9.20;83.50
1812;DHT22;904;47.814;11.134;2024-02-28T10:21:40;9.30;83.50
1812;DHT22;904;47.814;11.134;2024-02-28T10:24:08;9.30;83.60
1812;DHT22;904;47.814;11.134;2024-02-28T10:26:45;9.30;83.80
1812;DHT22;904;47.814;11.134;2024-02-28T10:29:13;9.30;84.30
1812;DHT22;904;47.814;11.134;2024-02-28T10:31:41;9.40;84.40
1812;DHT22;904;47.814;11.134;2024-02-28T10:34:11;9.40;84.50
1812;DHT22;904;47.814;11.134;2024-02-28T10:36:40;9.50;84.30
1812;DHT22;904;47.814;11.134;2024-02-28T10:39:08;9.60;83.30
1812;DHT22;904;47.814;11.134;2024-02-28T10:41:38;9.60;83.90
1812;DHT22;904;47.814;11.134;2024-02-28T10:44:04;9.60;82.90
1812;DHT22;904;47.814;11.134;2024-02-28T10:46:32;9.70;83.00
1812;DHT22;904;47.814;11.134;2024-02-28T10:48:58;9.70;82.90
1812;DHT22;904;47.814;11.134;2024-02-28T10:51:25;9.80;82.40
1812;DHT22;904;47.814;11.134;2024-02-28T10:54:02;9.80;82.00
1812;DHT22;904;47.814;11.134;2024-02-28T10:56:31;9.90;81.00
1812;DHT22;904;47.814;11.134;2024-02-28T10:58:59;9.90;80.90
1812;DHT22;904;47.814;11.134;2024-02-28T11:01:27;9.90;80.70
1812;DHT22;904;47.814;11.134;2024-02-28T11:03:55;9.90;80.50
1812;DHT22;904;47.814;11.134;2024-02-28T11:06:22;9.90;80.50
1812;DHT22;904;47.814;11.134;2024-02-28T11:08:51;9.90;80.90
1812;DHT22;904;47.814;11.134;2024-02-28T11:11:21;9.90;80.70
1812;DHT22;904;47.814;11.134;2024-02-28T11:13:54;10.00;78.40
1812;DHT22;904;47.814;11.134;2024-02-28T11:16:28;10.00;77.70
1812;DHT22;904;47.814;11.134;2024-02-28T11:18:57;10.00;77.30
1812;DHT22;904;47.814;11.134;2024-02-28T11:21:25;10.00;76.80
1812;DHT22;904;47.814;11.134;2024-02-28T11:23:52;10.00;77.00
1812;DHT22;904;47.814;11.134;2024-02-28T11:26:25;10.00;77.30
1812;DHT22;904;47.814;11.134;2024-02-28T11:28:53;10.10;76.90
1812;DHT22;904;47.814;11.134;2024-02-28T11:31:21;10.10;76.80
1812;DHT22;904;47.814;11.134;2024-02-28T11:33:48;10.10;76.60
1812;DHT22;904;47.814;11.134;2024-02-28T11:36:15;10.20;76.70
1812;DHT22;904;47.814;11.134;2024-02-28T11:38:41;10.20;76.80
1812;DHT22;904;47.814;11.134;2024-02-28T11:41:09;10.20;76.90
1812;DHT22;904;47.814;11.134;2024-02-28T11:43:37;10.20;77.20
1812;DHT22;904;47.814;11.134;2024-02-28T11:46:08;10.20;77.30
1812;DHT22;904;47.814;11.134;2024-02-28T11:48:36;10.30;76.90
1812;DHT22;904;47.814;11.134;2024-02-28T11:51:03;10.30;76.50
1812;DHT22;904;47.814;11.134;2024-02-28T11:53:30;10.40;76.30
1812;DHT22;904;47.814;11.134;2024-02-28T11:55:57;10.40;76.00
1812;DHT22;904;47.814;11.134;2024-02-28T11:58:24;10.40;75.50
1812;DHT22;904;47.814;11.134;2024-02-28T12:00:53;10.40;75.20
1812;DHT22;904;47.814;11.134;2024-02-28T12:03:21;10.40;75.30
1812;DHT22;904;47.814;11.134;2024-02-28T12:05:49;10.50;75.00
1812;DHT22;904;47.814;11.134;2024-02-28T12:08:19;10.50;74.90
1812;DHT22;904;47.814;11.134;2024-02-28T12:10:46;10.50;74.80
1812;DHT22;904;47.814;11.134;2024-02-28T12:13:16;10.50;74.20
1812;DHT22;904;47.814;11.134;2024-02-28T12:15:43;10.60;74.30
1812;DHT22;904;47.814;11.134;2024-02-28T12:18:14;10.60;74.40
1812;DHT22;904;47.814;11.134;2024-02-28T12:20:41;10.60;73.60
1812;DHT22;904;47.814;11.134;2024-02-28T12:23:08;10.70;73.10
1812;DHT22;904;47.814;11.134;2024-02-28T12:25:35;10.70;73.00
1812;DHT22;904;47.814;11.134;2024-02-28T12:28:04;10.70;72.70
1812;DHT22;904;47.814;11.134;2024-02-28T12:30:39;10.70;72.30
1812;DHT22;904;47.814;11.134;2024-02-28T12:33:07;10.70;72.60
1812;DHT22;904;47.814;11.134;2024-02-28T12:35:35;10.70;72.40
1812;DHT22;904;47.814;11.134;2024-02-28T12:38:03;10.70;71.80
1812;DHT22;904;47.814;11.134;2024-02-28T12:40:30;10.70;71.70
1812;DHT22;904;47.814;11.134;2024-02-28T12:42:56;10.80;71.80
1812;DHT22;904;47.814;11.134;2024-02-28T12:45:24;10.70;71.70
1812;DHT22;904;47.814;11.134;2024-02-28T12:47:51;10.70;71.90
1812;DHT22;904;47.814;11.134;2024-02-28T12:50:19;10.70;71.70
1812;DHT22;904;47.814;11.134;2024-02-28T12:52:48;10.70;71.90
1812;DHT22;904;47.814;11.134;2024-02-28T12:55:19;10.70;71.90
1812;DHT22;904;47.814;11.134;2024-02-28T12:57:46;10.70;71.60
1812;DHT22;904;47.814;11.134;2024-02-28T13:00:13;10.70;71.00
1812;DHT22;904;47.814;11.134;2024-02-28T13:02:40;10.60;70.60
1812;DHT22;904;47.814;11.134;2024-02-28T13:05:07;10.60;70.50
1812;DHT22;904;47.814;11.134;2024-02-28T13:07:35;10.60;70.70
1812;DHT22;904;47.814;11.134;2024-02-28T13:10:05;10.60;70.50
1812;DHT22;904;47.814;11.134;2024-02-28T13:12:34;10.60;70.70
1812;DHT22;904;47.814;11.134;2024-02-28T13:15:01;10.60;70.20
1812;DHT22;904;47.814;11.134;2024-02-28T13:17:28;10.60;70.40
1812;DHT22;904;47.814;11.134;2024-02-28T13:19:55;10.60;69.90
1812;DHT22;904;47.814;11.134;2024-02-28T13:22:22;10.50;70.00
1812;DHT22;904;47.814;11.134;2024-02-28T13:24:49;10.50;70.50
1812;DHT22;904;47.814;11.134;2024-02-28T13:27:17;10.50;70.60
1812;DHT22;904;47.814;11.134;2024-02-28T13:29:44;10.60;70.50
1812;DHT22;904;47.814;11.134;2024-02-28T13:32:11;10.50;70.60
1812;DHT22;904;47.814;11.134;2024-02-28T13:34:39;10.50;70.20
1812;DHT22;904;47.814;11.134;2024-02-28T13:37:06;10.50;70.20
1812;DHT22;904;47.814;11.134;2024-02-28T13:39:33;10.50;70.30
1812;DHT22;904;47.814;11.134;2024-02-28T13:42:00;10.40;70.10
1812;DHT22;904;47.814;11.134;2024-02-28T13:44:32;10.40;70.50
1812;DHT22;904;47.814;11.134;2024-02-28T13:47:00;10.40;70.60
1812;DHT22;904;47.814;11.134;2024-02-28T13:49:27;10.40;69.90
1812;DHT22;904;47.814;11.134;2024-02-28T13:51:54;10.40;69.70
1812;DHT22;904;47.814;11.134;2024-02-28T13:54:21;10.30;69.70
1812;DHT22;904;47.814;11.134;2024-02-28T13:56:48;10.30;69.50
1812;DHT22;904;47.814;11.134;2024-02-28T13:59:15;10.30;69.50
1812;DHT22;904;47.814;11.134;2024-02-28T14:01:43;10.20;69.90
1812;DHT22;904;47.814;11.134;2024-02-28T14:04:11;10.30;70.40
1812;DHT22;904;47.814;11.134;2024-02-28T14:06:38;10.20;70.30
1812;DHT22;904;47.814;11.134;2024-02-28T14:09:05;10.20;70.20
1812;DHT22;904;47.814;11.134;2024-02-28T14:11:32;10.20;70.00
1812;DHT22;904;47.814;11.134;2024-02-28T14:13:59;10.10;69.90
1812;DHT22;904;47.814;11.134;2024-02-28T14:16:26;10.10;69.80
1812;DHT22;904;47.814;11.134;2024-02-28T14:18:55;10.10;69.70
1812;DHT22;904;47.814;11.134;2024-02-28T14:21:22;10.00;69.80
1812;DHT22;904;47.814;11.134;2024-02-28T14:23:50;10.00;69.70
1812;DHT22;904;47.814;11.134;2024-02-28T14:26:17;10.00;69.70
1812;DHT22;904;47.814;11.134;2024-02-28T14:28:44;10.00;69.40
1812;DHT22;904;47.814;11.134;2024-02-28T14:31:11;10.00;69.00
1812;DHT22;904;47.814;11.134;2024-02-28T14:33:38;10.00;68.90
1812;DHT22;904;47.814;11.134;2024-02-28T14:36:07;9.90;70.20
1812;DHT22;904;47.814;11.134;2024-02-28T14:38:33;9.90;70.50
1812;DHT22;904;47.814;11.134;2024-02-28T14:41:00;9.90;70.70
1812;DHT22;904;47.814;11.134;2024-02-28T14:43:28;9.80;70.70
1812;DHT22;904;47.814;11.134;2024-02-28T14:45:56;9.80;70.90
1812;DHT22;904;47.814;11.134;2024-02-28T14:48:23;9.80;71.20
1812;DHT22;904;47.814;11.134;2024-02-28T14:50:50;9.80;71.20
1812;DHT22;904;47.814;11.134;2024-02-28T14:53:20;9.70;71.40
1812;DHT22;904;47.814;11.134;2024-02-28T14:55:47;9.70;71.40
1812;DHT22;904;47.814;11.134;2024-02-28T14:58:14;9.70;71.10
1812;DHT22;904;47.814;11.134;2024-02-28T15:00:41;9.70;71.30
1812;DHT22;904;47.814;11.134;2024-02-28T15:03:08;9.70;71.30
1812;DHT22;904;47.814;11.134;2024-02-28T15:05:35;9.70;71.30
1812;DHT22;904;47.814;11.134;2024-02-28T15:08:02;9.70;71.50
1812;DHT22;904;47.814;11.134;2024-02-28T15:10:31;9.70;71.40
1812;DHT22;904;47.814;11.134;2024-02-28T15:12:58;9.60;71.60
1812;DHT22;904;47.814;11.134;2024-02-28T15:15:25;9.60;71.90
1812;DHT22;904;47.814;11.134;2024-02-28T15:17:53;9.60;72.30
1812;DHT22;904;47.814;11.134;2024-02-28T15:20:20;9.60;72.20
1812;DHT22;904;47.814;11.134;2024-02-28T15:22:48;9.60;72.20
1812;DHT22;904;47.814;11.134;2024-02-28T15:25:15;9.60;72.20
1812;DHT22;904;47.814;11.134;2024-02-28T15:27:43;9.60;72.20
1812;DHT22;904;47.814;11.134;2024-02-28T15:30:11;9.60;72.30
1812;DHT22;904;47.814;11.134;2024-02-28T15:32:38;9.60;72.50
1812;DHT22;904;47.814;11.134;2024-02-28T15:35:07;9.60;72.40
1812;DHT22;904;47.814;11.134;2024-02-28T15:37:34;9.50;72.40
1812;DHT22;904;47.814;11.134;2024-02-28T15:40:01;9.60;72.70
1812;DHT22;904;47.814;11.134;2024-02-28T15:42:31;9.50;72.50
1812;DHT22;904;47.814;11.134;2024-02-28T15:44:59;9.50;72.80
1812;DHT22;904;47.814;11.134;2024-02-28T15:47:27;9.50;72.80
1812;DHT22;904;47.814;11.134;2024-02-28T15:49:54;9.50;72.90
1812;DHT22;904;47.814;11.134;2024-02-28T15:52:21;9.50;72.90
1812;DHT22;904;47.814;11.134;2024-02-28T15:54:48;9.50;73.00
1812;DHT22;904;47.814;11.134;2024-02-28T15:57:15;9.50;73.30
1812;DHT22;904;47.814;11.134;2024-02-28T15:59:42;9.50;73.30
1812;DHT22;904;47.814;11.134;2024-02-28T16:02:10;9.50;73.40
1812;DHT22;904;47.814;11.134;2024-02-28T16:04:37;9.50;73.40
1812;DHT22;904;47.814;11.134;2024-02-28T16:07:04;9.50;73.70
1812;DHT22;904;47.814;11.134;2024-02-28T16:09:33;9.50;73.70
1812;DHT22;904;47.814;11.134;2024-02-28T16:12:00;9.60;73.90
1812;DHT22;904;47.814;11.134;2024-02-28T16:14:28;9.60;74.80
1812;DHT22;904;47.814;11.134;2024-02-28T16:16:55;9.60;73.90
1812;DHT22;904;47.814;11.134;2024-02-28T16:19:24;9.50;73.90